sensor_id;sensor_type;location;lat;lon;timestamp;pressure;altitude;pressure_sealevel;temperature;humidity
66176;BME280;52977;44.816;20.538;2023-12-20T00:01:35;99720.53;;;8.58;71.95
66176;BME280;52977;44.816;20.538;2023-12-20T00:04:02;99702.25;;;8.50;71.62
66176;BME280;52977;44.816;20.538;2023-12-20T00:06:32;99709.66;;;8.58;71.99
66176;BME280;52977;44.816;20.538;2023-12-20T00:08:57;99678.59;;;8.36;72.25
66176;BME280;52977;44.816;20.538;2023-12-20T00:11:24;99689.84;;;8.44;72.02
66176;BME280;52977;44.816;20.538;2023-12-20T00:13:50;99669.13;;;8.34;71.96
66176;BME280;52977;44.816;20.538;2023-12-20T00:16:17;99702.44;;;8.53;72.33
66176;BME280;52977;44.816;20.538;2023-12-20T00:18:44;99554.78;;;7.57;71.87
66176;BME280;52977;44.816;20.538;2023-12-20T00:21:11;99703.06;;;8.50;72.44
66176;BME280;52977;44.816;20.538;2023-12-20T00:23:37;99690.25;;;8.51;71.82
66176;BME280;52977;44.816;20.538;2023-12-20T00:26:03;99683.22;;;8.50;72.00
66176;BME280;52977;44.816;20.538;2023-12-20T00:28:29;99659.84;;;8.35;71.43
66176;BME280;52977;44.816;20.538;2023-12-20T00:30:55;99678.06;;;8.48;72.08
66176;BME280;52977;44.816;20.538;2023-12-20T00:33:21;99646.78;;;8.23;71.54
66176;BME280;52977;44.816;20.538;2023-12-20T00:35:46;99596.72;;;8.01;71.28
66176;BME280;52977;44.816;20.538;2023-12-20T00:38:12;99679.06;;;8.52;70.53
66176;BME280;52977;44.816;20.538;2023-12-20T00:40:39;99660.94;;;8.48;70.71
66176;BME280;52977;44.816;20.538;2023-12-20T00:43:05;99673.19;;;8.59;70.27
66176;BME280;52977;44.816;20.538;2023-12-20T00:45:31;99645.25;;;8.45;70.46
66176;BME280;52977;44.816;20.538;2023-12-20T00:47:57;99627.38;;;8.38;70.09
66176;BME280;52977;44.816;20.538;2023-12-20T00:50:25;99635.75;;;8.42;69.88
66176;BME280;52977;44.816;20.538;2023-12-20T00:52:51;99635.34;;;8.49;69.07
66176;BME280;52977;44.816;20.538;2023-12-20T00:55:17;99582.34;;;8.24;69.17
66176;BME280;52977;44.816;20.538;2023-12-20T00:57:44;99618.72;;;8.50;68.98
66176;BME280;52977;44.816;20.538;2023-12-20T01:00:10;99643.00;;;8.69;68.99
66176;BME280;52977;44.816;20.538;2023-12-20T01:02:36;99644.59;;;8.70;68.69
66176;BME280;52977;44.816;20.538;2023-12-20T01:05:02;99654.44;;;8.80;68.42
66176;BME280;52977;44.816;20.538;2023-12-20T01:07:28;99612.88;;;8.43;69.08
66176;BME280;52977;44.816;20.538;2023-12-20T01:09:54;99600.44;;;8.06;70.15
66176;BME280;52977;44.816;20.538;2023-12-20T01:12:20;99623.06;;;8.15;70.73
66176;BME280;52977;44.816;20.538;2023-12-20T01:14:46;99646.56;;;8.33;70.26
66176;BME280;52977;44.816;20.538;2023-12-20T01:17:12;99627.66;;;8.28;70.67
66176;BME280;52977;44.816;20.538;2023-12-20T01:19:37;99583.81;;;8.07;70.27
66176;BME280;52977;44.816;20.538;2023-12-20T01:22:03;99634.97;;;8.42;70.07
66176;BME280;52977;44.816;20.538;2023-12-20T01:24:29;99628.91;;;8.45;69.61
66176;BME280;52977;44.816;20.538;2023-12-20T01:26:54;99586.91;;;8.14;69.68
66176;BME280;52977;44.816;20.538;2023-12-20T01:29:20;99532.75;;;7.81;69.39
66176;BME280;52977;44.816;20.538;2023-12-20T01:31:46;99620.13;;;8.48;69.60
66176;BME280;52977;44.816;20.538;2023-12-20T01:34:12;99589.47;;;8.33;69.39
66176;BME280;52977;44.816;20.538;2023-12-20T01:36:37;99612.78;;;8.48;69.36
66176;BME280;52977;44.816;20.538;2023-12-20T01:39:04;99600.69;;;8.41;69.23
66176;BME280;52977;44.816;20.538;2023-12-20T01:41:30;99539.38;;;8.12;69.13
66176;BME280;52977;44.816;20.538;2023-12-20T01:43:56;99561.38;;;8.24;69.05
66176;BME280;52977;44.816;20.538;2023-12-20T01:46:23;99558.56;;;8.29;69.24
66176;BME280;52977;44.816;20.538;2023-12-20T01:48:49;99534.50;;;8.23;69.13
66176;BME280;52977;44.816;20.538;2023-12-20T01:51:16;99559.09;;;8.40;68.78
66176;BME280;52977;44.816;20.538;2023-12-20T01:53:43;99487.81;;;7.98;68.50
66176;BME280;52977;44.816;20.538;2023-12-20T01:56:10;99512.19;;;8.12;68.61
66176;BME280;52977;44.816;20.538;2023-12-20T01:58:39;99525.88;;;8.20;68.74
66176;BME280;52977;44.816;20.538;2023-12-20T02:01:07;99578.63;;;8.42;69.74
66176;BME280;52977;44.816;20.538;2023-12-20T02:03:35;99567.25;;;7.95;71.05
66176;BME280;52977;44.816;20.538;2023-12-20T02:06:03;99575.34;;;7.49;73.53
66176;BME280;52977;44.816;20.538;2023-12-20T02:08:29;99522.09;;;6.98;74.53
66176;BME280;52977;44.816;20.538;2023-12-20T02:10:56;99447.00;;;6.38;75.62
66176;BME280;52977;44.816;20.538;2023-12-20T02:13:21;99544.38;;;6.95;75.65
66176;BME280;52977;44.816;20.538;2023-12-20T02:15:48;99514.63;;;6.48;77.54
66176;BME280;52977;44.816;20.538;2023-12-20T02:18:14;99479.72;;;5.94;78.88
66176;BME280;52977;44.816;20.538;2023-12-20T02:20:42;99558.25;;;6.79;78.89
66176;BME280;52977;44.816;20.538;2023-12-20T02:23:09;99532.66;;;6.86;77.64
66176;BME280;52977;44.816;20.538;2023-12-20T02:25:35;99538.38;;;7.12;76.89
66176;BME280;52977;44.816;20.538;2023-12-20T02:28:02;99548.22;;;7.22;76.45
66176;BME280;52977;44.816;20.538;2023-12-20T02:30:28;99520.69;;;7.00;76.08
66176;BME280;52977;44.816;20.538;2023-12-20T02:32:54;99552.44;;;7.14;76.76
66176;BME280;52977;44.816;20.538;2023-12-20T02:35:22;99512.66;;;6.95;76.94
66176;BME280;52977;44.816;20.538;2023-12-20T02:37:47;99521.97;;;7.03;76.39
66176;BME280;52977;44.816;20.538;2023-12-20T02:40:13;99436.59;;;6.45;76.40
66176;BME280;52977;44.816;20.538;2023-12-20T02:42:39;99540.97;;;7.03;77.02
66176;BME280;52977;44.816;20.538;2023-12-20T02:45:05;99528.41;;;6.93;77.21
66176;BME280;52977;44.816;20.538;2023-12-20T02:47:30;99487.00;;;6.60;77.35
66176;BME280;52977;44.816;20.538;2023-12-20T02:49:56;99517.78;;;6.83;77.50
66176;BME280;52977;44.816;20.538;2023-12-20T02:52:23;99517.16;;;6.72;77.66
66176;BME280;52977;44.816;20.538;2023-12-20T02:54:49;99490.94;;;6.54;78.02
66176;BME280;52977;44.816;20.538;2023-12-20T02:57:15;99515.84;;;6.70;77.66
66176;BME280;52977;44.816;20.538;2023-12-20T02:59:40;99524.66;;;6.33;79.89
66176;BME280;52977;44.816;20.538;2023-12-20T03:02:07;99513.22;;;6.37;80.43
66176;BME280;52977;44.816;20.538;2023-12-20T03:04:33;99503.06;;;6.42;79.73
66176;BME280;52977;44.816;20.538;2023-12-20T03:06:59;99480.34;;;6.24;79.77
66176;BME280;52977;44.816;20.538;2023-12-20T03:09:25;99494.94;;;5.76;82.43
66176;BME280;52977;44.816;20.538;2023-12-20T03:11:52;99429.84;;;5.29;82.56
66176;BME280;52977;44.816;20.538;2023-12-20T03:14:17;99456.25;;;5.57;82.57
66176;BME280;52977;44.816;20.538;2023-12-20T03:16:48;99445.91;;;5.59;82.03
66176;BME280;52977;44.816;20.538;2023-12-20T03:19:15;99512.94;;;5.86;83.05
66176;BME280;52977;44.816;20.538;2023-12-20T03:21:41;99494.47;;;5.88;82.87
66176;BME280;52977;44.816;20.538;2023-12-20T03:24:07;99487.91;;;5.56;83.34
66176;BME280;52977;44.816;20.538;2023-12-20T03:26:32;99479.91;;;5.84;83.43
66176;BME280;52977;44.816;20.538;2023-12-20T03:28:59;99488.75;;;6.09;82.37
66176;BME280;52977;44.816;20.538;2023-12-20T03:31:25;99495.63;;;6.01;81.60
66176;BME280;52977;44.816;20.538;2023-12-20T03:33:51;99471.97;;;5.74;82.96
66176;BME280;52977;44.816;20.538;2023-12-20T03:36:20;99493.19;;;5.67;84.36
66176;BME280;52977;44.816;20.538;2023-12-20T03:38:46;99361.25;;;4.82;84.30
66176;BME280;52977;44.816;20.538;2023-12-20T03:41:13;99477.00;;;5.80;83.97
66176;BME280;52977;44.816;20.538;2023-12-20T03:43:39;99476.75;;;5.96;83.52
66176;BME280;52977;44.816;20.538;2023-12-20T03:46:05;99470.34;;;5.73;84.42
66176;BME280;52977;44.816;20.538;2023-12-20T03:48:31;99404.41;;;5.63;83.31
66176;BME280;52977;44.816;20.538;2023-12-20T03:50:57;99452.28;;;6.01;83.24
66176;BME280;52977;44.816;20.538;2023-12-20T03:53:24;99455.41;;;6.08;82.82
66176;BME280;52977;44.816;20.538;2023-12-20T03:55:50;99388.31;;;5.86;82.67
66176;BME280;52977;44.816;20.538;2023-12-20T03:58:16;99438.47;;;6.16;82.56
66176;BME280;52977;44.816;20.538;2023-12-20T04:00:42;99443.03;;;6.35;81.59
66176;BME280;52977;44.816;20.538;2023-12-20T04:03:09;99442.50;;;6.47;81.39
66176;BME280;52977;44.816;20.538;2023-12-20T04:05:35;99379.66;;;6.17;80.67
66176;BME280;52977;44.816;20.538;2023-12-20T04:08:01;99434.47;;;6.56;79.91
66176;BME280;52977;44.816;20.538;2023-12-20T04:10:28;99390.81;;;6.15;80.18
66176;BME280;52977;44.816;20.538;2023-12-20T04:12:54;99412.88;;;6.23;80.74
66176;BME280;52977;44.816;20.538;2023-12-20T04:15:21;99402.44;;;6.16;80.06
66176;BME280;52977;44.816;20.538;2023-12-20T04:17:47;99441.31;;;6.39;79.75
66176;BME280;52977;44.816;20.538;2023-12-20T04:20:13;99424.22;;;6.39;79.19
66176;BME280;52977;44.816;20.538;2023-12-20T04:22:38;99408.34;;;6.04;80.55
66176;BME280;52977;44.816;20.538;2023-12-20T04:25:04;99425.81;;;6.12;80.74
66176;BME280;52977;44.816;20.538;2023-12-20T04:27:30;99431.03;;;6.22;80.57
66176;BME280;52977;44.816;20.538;2023-12-20T04:29:56;99412.19;;;6.31;79.95
66176;BME280;52977;44.816;20.538;2023-12-20T04:32:21;99372.94;;;6.14;79.65
66176;BME280;52977;44.816;20.538;2023-12-20T04:34:48;99415.22;;;6.43;79.74
66176;BME280;52977;44.816;20.538;2023-12-20T04:37:13;99409.66;;;6.48;79.23
66176;BME280;52977;44.816;20.538;2023-12-20T04:39:39;99409.97;;;6.47;79.33
66176;BME280;52977;44.816;20.538;2023-12-20T04:42:06;99356.16;;;6.12;79.25
66176;BME280;52977;44.816;20.538;2023-12-20T04:44:32;99385.47;;;6.38;79.12
66176;BME280;52977;44.816;20.538;2023-12-20T04:46:58;99395.50;;;6.38;79.54
66176;BME280;52977;44.816;20.538;2023-12-20T04:49:24;99400.84;;;6.43;80.51
66176;BME280;52977;44.816;20.538;2023-12-20T04:51:51;99374.63;;;6.24;79.44
66176;BME280;52977;44.816;20.538;2023-12-20T04:54:17;99386.47;;;6.42;79.23
66176;BME280;52977;44.816;20.538;2023-12-20T04:56:43;99397.94;;;6.53;78.82
66176;BME280;52977;44.816;20.538;2023-12-20T04:59:09;99350.16;;;6.29;79.19
66176;BME280;52977;44.816;20.538;2023-12-20T05:01:36;99388.19;;;6.52;78.34
66176;BME280;52977;44.816;20.538;2023-12-20T05:04:02;99383.25;;;6.54;79.09
66176;BME280;52977;44.816;20.538;2023-12-20T05:06:28;99336.59;;;6.15;79.41
66176;BME280;52977;44.816;20.538;2023-12-20T05:08:53;99380.06;;;6.52;79.50
66176;BME280;52977;44.816;20.538;2023-12-20T05:11:19;99404.63;;;6.70;78.51
66176;BME280;52977;44.816;20.538;2023-12-20T05:13:44;99353.94;;;6.42;78.25
66176;BME280;52977;44.816;20.538;2023-12-20T05:16:10;99394.59;;;6.70;78.76
66176;BME280;52977;44.816;20.538;2023-12-20T05:18:36;99395.59;;;6.74;78.35
66176;BME280;52977;44.816;20.538;2023-12-20T05:21:02;99383.16;;;6.59;78.29
66176;BME280;52977;44.816;20.538;2023-12-20T05:23:28;99383.75;;;6.56;77.70
66176;BME280;52977;44.816;20.538;2023-12-20T05:25:54;99397.63;;;6.69;78.29
66176;BME280;52977;44.816;20.538;2023-12-20T05:28:20;99383.84;;;6.51;78.38
66176;BME280;52977;44.816;20.538;2023-12-20T05:30:46;99372.72;;;6.53;79.21
66176;BME280;52977;44.816;20.538;2023-12-20T05:33:12;99397.78;;;6.72;79.33
66176;BME280;52977;44.816;20.538;2023-12-20T05:35:37;99394.78;;;6.74;79.20
66176;BME280;52977;44.816;20.538;2023-12-20T05:38:04;99407.13;;;6.80;78.98
66176;BME280;52977;44.816;20.538;2023-12-20T05:40:32;99394.28;;;6.86;78.64
66176;BME280;52977;44.816;20.538;2023-12-20T05:42:58;99390.03;;;6.79;78.24
66176;BME280;52977;44.816;20.538;2023-12-20T05:45:30;99388.63;;;6.82;77.77
66176;BME280;52977;44.816;20.538;2023-12-20T05:47:56;99364.25;;;6.54;78.10
66176;BME280;52977;44.816;20.538;2023-12-20T05:50:23;99360.34;;;6.60;78.95
66176;BME280;52977;44.816;20.538;2023-12-20T05:52:49;99400.47;;;6.86;78.71
66176;BME280;52977;44.816;20.538;2023-12-20T05:55:16;99400.47;;;6.86;78.81
66176;BME280;52977;44.816;20.538;2023-12-20T05:57:43;99389.16;;;6.84;78.19
66176;BME280;52977;44.816;20.538;2023-12-20T06:00:09;99393.44;;;6.85;77.97
66176;BME280;52977;44.816;20.538;2023-12-20T06:02:39;99334.44;;;6.54;77.65
66176;BME280;52977;44.816;20.538;2023-12-20T06:05:05;99383.78;;;6.93;77.36
66176;BME280;52977;44.816;20.538;2023-12-20T06:07:32;99384.59;;;6.93;76.75
66176;BME280;52977;44.816;20.538;2023-12-20T06:09:58;99394.38;;;6.80;77.08
66176;BME280;52977;44.816;20.538;2023-12-20T06:12:24;99332.34;;;6.37;77.67
66176;BME280;52977;44.816;20.538;2023-12-20T06:14:52;99392.66;;;6.84;77.48
66176;BME280;52977;44.816;20.538;2023-12-20T06:17:19;99315.78;;;6.39;78.08
66176;BME280;52977;44.816;20.538;2023-12-20T06:19:45;99378.69;;;6.91;77.38
66176;BME280;52977;44.816;20.538;2023-12-20T06:22:17;99370.53;;;6.91;77.83
66176;BME280;52977;44.816;20.538;2023-12-20T06:24:43;99332.91;;;6.76;77.70
66176;BME280;52977;44.816;20.538;2023-12-20T06:27:09;99363.97;;;7.06;77.07
66176;BME280;52977;44.816;20.538;2023-12-20T06:29:36;99358.22;;;7.08;77.36
66176;BME280;52977;44.816;20.538;2023-12-20T06:32:02;99322.13;;;6.84;77.10
66176;BME280;52977;44.816;20.538;2023-12-20T06:34:28;99340.38;;;6.93;77.52
66176;BME280;52977;44.816;20.538;2023-12-20T06:36:55;99340.69;;;6.91;77.47
66176;BME280;52977;44.816;20.538;2023-12-20T06:39:21;99343.88;;;6.93;77.49
66176;BME280;52977;44.816;20.538;2023-12-20T06:41:47;99350.09;;;7.08;76.76
66176;BME280;52977;44.816;20.538;2023-12-20T06:44:13;99352.81;;;7.08;76.53
66176;BME280;52977;44.816;20.538;2023-12-20T06:46:40;99302.50;;;6.51;76.91
66176;BME280;52977;44.816;20.538;2023-12-20T06:49:06;99238.31;;;5.96;77.74
66176;BME280;52977;44.816;20.538;2023-12-20T06:51:32;99284.19;;;6.06;79.07
66176;BME280;52977;44.816;20.538;2023-12-20T06:53:58;99297.72;;;5.92;79.69
66176;BME280;52977;44.816;20.538;2023-12-20T06:56:26;99369.44;;;6.14;80.96
66176;BME280;52977;44.816;20.538;2023-12-20T06:58:52;99375.44;;;6.25;80.99
66176;BME280;52977;44.816;20.538;2023-12-20T07:01:18;99362.09;;;6.42;81.38
66176;BME280;52977;44.816;20.538;2023-12-20T07:03:44;99345.72;;;6.47;81.53
66176;BME280;52977;44.816;20.538;2023-12-20T07:06:10;99361.97;;;6.98;86.66
66176;BME280;52977;44.816;20.538;2023-12-20T07:08:37;99288.38;;;6.77;83.63
66176;BME280;52977;44.816;20.538;2023-12-20T07:11:03;99359.84;;;7.31;79.32
66176;BME280;52977;44.816;20.538;2023-12-20T07:13:30;99349.56;;;7.28;77.96
66176;BME280;52977;44.816;20.538;2023-12-20T07:15:56;99344.16;;;7.06;78.05
66176;BME280;52977;44.816;20.538;2023-12-20T07:18:22;99334.91;;;7.07;78.33
66176;BME280;52977;44.816;20.538;2023-12-20T07:20:48;99354.91;;;7.11;78.04
66176;BME280;52977;44.816;20.538;2023-12-20T07:23:15;99329.28;;;7.03;78.03
66176;BME280;52977;44.816;20.538;2023-12-20T07:25:40;99352.97;;;7.11;78.17
66176;BME280;52977;44.816;20.538;2023-12-20T07:28:06;99286.25;;;6.74;78.25
66176;BME280;52977;44.816;20.538;2023-12-20T07:30:32;99343.53;;;7.09;78.28
66176;BME280;52977;44.816;20.538;2023-12-20T07:32:57;99317.50;;;6.71;79.29
66176;BME280;52977;44.816;20.538;2023-12-20T07:35:23;99344.41;;;6.95;79.64
66176;BME280;52977;44.816;20.538;2023-12-20T07:37:49;99331.25;;;6.89;78.76
66176;BME280;52977;44.816;20.538;2023-12-20T07:40:14;99357.50;;;7.16;78.61
66176;BME280;52977;44.816;20.538;2023-12-20T07:42:42;99258.50;;;6.54;77.23
66176;BME280;52977;44.816;20.538;2023-12-20T07:45:08;99339.28;;;7.16;76.32
66176;BME280;52977;44.816;20.538;2023-12-20T07:47:36;99315.84;;;7.21;75.69
66176;BME280;52977;44.816;20.538;2023-12-20T07:50:02;99329.38;;;7.12;76.83
66176;BME280;52977;44.816;20.538;2023-12-20T07:52:29;99337.34;;;6.58;79.47
66176;BME280;52977;44.816;20.538;2023-12-20T07:54:56;99271.88;;;6.00;81.19
66176;BME280;52977;44.816;20.538;2023-12-20T07:57:23;99327.34;;;6.30;81.28
66176;BME280;52977;44.816;20.538;2023-12-20T07:59:49;99338.00;;;6.13;82.46
66176;BME280;52977;44.816;20.538;2023-12-20T08:02:15;99318.91;;;5.90;83.79
66176;BME280;52977;44.816;20.538;2023-12-20T08:04:41;99342.41;;;6.09;84.81
66176;BME280;52977;44.816;20.538;2023-12-20T08:07:07;99345.22;;;6.18;84.77
66176;BME280;52977;44.816;20.538;2023-12-20T08:09:32;99352.25;;;6.19;85.10
66176;BME280;52977;44.816;20.538;2023-12-20T08:11:59;99315.28;;;5.95;83.91
66176;BME280;52977;44.816;20.538;2023-12-20T08:14:25;99375.19;;;5.93;83.64
66176;BME280;52977;44.816;20.538;2023-12-20T08:16:51;99336.25;;;5.42;86.59
66176;BME280;52977;44.816;20.538;2023-12-20T08:19:16;99347.06;;;5.42;87.08
66176;BME280;52977;44.816;20.538;2023-12-20T08:21:42;99310.69;;;5.35;86.27
66176;BME280;52977;44.816;20.538;2023-12-20T08:24:08;99308.06;;;5.76;88.71
66176;BME280;52977;44.816;20.538;2023-12-20T08:26:34;99353.56;;;6.07;86.81
66176;BME280;52977;44.816;20.538;2023-12-20T08:29:00;99352.34;;;5.99;87.37
66176;BME280;52977;44.816;20.538;2023-12-20T08:31:27;99313.84;;;5.56;88.71
66176;BME280;52977;44.816;20.538;2023-12-20T08:33:53;99333.19;;;5.63;88.86
66176;BME280;52977;44.816;20.538;2023-12-20T08:36:19;99280.91;;;5.35;88.61
66176;BME280;52977;44.816;20.538;2023-12-20T08:38:47;99296.75;;;5.41;90.45
66176;BME280;52977;44.816;20.538;2023-12-20T08:41:12;99239.72;;;5.05;92.27
66176;BME280;52977;44.816;20.538;2023-12-20T08:43:38;99277.72;;;5.46;93.58
66176;BME280;52977;44.816;20.538;2023-12-20T08:46:08;99289.25;;;5.52;95.35
66176;BME280;52977;44.816;20.538;2023-12-20T08:48:35;99286.88;;;5.64;100.00
66176;BME280;52977;44.816;20.538;2023-12-20T08:51:01;99291.00;;;5.90;97.86
66176;BME280;52977;44.816;20.538;2023-12-20T08:53:27;99238.63;;;5.53;95.54
66176;BME280;52977;44.816;20.538;2023-12-20T08:55:53;99246.91;;;5.28;95.81
66176;BME280;52977;44.816;20.538;2023-12-20T08:58:19;99308.13;;;5.71;95.59
66176;BME280;52977;44.816;20.538;2023-12-20T09:00:46;99255.19;;;5.18;96.23
66176;BME280;52977;44.816;20.538;2023-12-20T09:03:12;99336.84;;;5.86;96.84
66176;BME280;52977;44.816;20.538;2023-12-20T09:05:38;99279.13;;;5.72;95.46
66176;BME280;52977;44.816;20.538;2023-12-20T09:08:04;99262.41;;;5.70;93.98
66176;BME280;52977;44.816;20.538;2023-12-20T09:10:30;99310.75;;;5.62;94.67
66176;BME280;52977;44.816;20.538;2023-12-20T09:12:56;99303.50;;;5.58;94.06
66176;BME280;52977;44.816;20.538;2023-12-20T09:15:26;99328.50;;;5.69;93.33
66176;BME280;52977;44.816;20.538;2023-12-20T09:17:53;99311.25;;;5.31;93.43
66176;BME280;52977;44.816;20.538;2023-12-20T09:20:19;99278.41;;;5.05;93.06
66176;BME280;52977;44.816;20.538;2023-12-20T09:22:45;99319.78;;;5.06;95.52
66176;BME280;52977;44.816;20.538;2023-12-20T09:25:12;99330.06;;;5.23;95.79
66176;BME280;52977;44.816;20.538;2023-12-20T09:27:39;99233.06;;;4.64;95.56
66176;BME280;52977;44.816;20.538;2023-12-20T09:30:06;99321.88;;;5.28;95.16
66176;BME280;52977;44.816;20.538;2023-12-20T09:32:32;99326.50;;;5.27;94.92
66176;BME280;52977;44.816;20.538;2023-12-20T09:34:58;99185.91;;;4.37;95.55
66176;BME280;52977;44.816;20.538;2023-12-20T09:37:26;99318.59;;;5.31;96.41
66176;BME280;52977;44.816;20.538;2023-12-20T09:39:53;99320.28;;;5.27;96.79
66176;BME280;52977;44.816;20.538;2023-12-20T09:42:25;99312.00;;;5.51;95.62
66176;BME280;52977;44.816;20.538;2023-12-20T09:44:55;99233.03;;;5.16;95.04
66176;BME280;52977;44.816;20.538;2023-12-20T09:47:25;99295.38;;;5.72;93.76
66176;BME280;52977;44.816;20.538;2023-12-20T09:49:51;99230.19;;;5.54;92.44
66176;BME280;52977;44.816;20.538;2023-12-20T09:52:18;99242.22;;;5.90;91.23
66176;BME280;52977;44.816;20.538;2023-12-20T09:54:45;99292.56;;;6.60;89.68
66176;BME280;52977;44.816;20.538;2023-12-20T09:57:13;99212.38;;;6.31;87.00
66176;BME280;52977;44.816;20.538;2023-12-20T09:59:39;99233.38;;;6.62;85.12
66176;BME280;52977;44.816;20.538;2023-12-20T10:02:08;99263.22;;;7.08;84.49
66176;BME280;52977;44.816;20.538;2023-12-20T10:04:41;99200.66;;;6.81;84.15
66176;BME280;52977;44.816;20.538;2023-12-20T10:07:11;99184.06;;;6.83;82.67
66176;BME280;52977;44.816;20.538;2023-12-20T10:09:37;99235.81;;;7.18;83.88
66176;BME280;52977;44.816;20.538;2023-12-20T10:12:04;99207.03;;;7.08;82.25
66176;BME280;52977;44.816;20.538;2023-12-20T10:14:32;99276.41;;;7.55;82.04
66176;BME280;52977;44.816;20.538;2023-12-20T10:17:02;99259.09;;;7.42;84.44
66176;BME280;52977;44.816;20.538;2023-12-20T10:19:29;99267.13;;;7.47;85.56
66176;BME280;52977;44.816;20.538;2023-12-20T10:21:55;99214.56;;;6.89;85.23
66176;BME280;52977;44.816;20.538;2023-12-20T10:24:21;99189.25;;;6.71;85.65
66176;BME280;52977;44.816;20.538;2023-12-20T10:26:47;99171.00;;;6.62;84.62
66176;BME280;52977;44.816;20.538;2023-12-20T10:29:14;99106.97;;;6.07;83.72
66176;BME280;52977;44.816;20.538;2023-12-20T10:31:40;99185.13;;;6.50;84.48
66176;BME280;52977;44.816;20.538;2023-12-20T10:34:08;99256.56;;;6.91;85.07
66176;BME280;52977;44.816;20.538;2023-12-20T10:36:34;99214.00;;;6.55;84.95
66176;BME280;52977;44.816;20.538;2023-12-20T10:39:01;99260.94;;;6.78;85.76
66176;BME280;52977;44.816;20.538;2023-12-20T10:41:32;99246.44;;;6.60;86.25
66176;BME280;52977;44.816;20.538;2023-12-20T10:44:02;99249.16;;;6.60;86.38
66176;BME280;52977;44.816;20.538;2023-12-20T10:46:29;99258.03;;;6.75;86.20
66176;BME280;52977;44.816;20.538;2023-12-20T10:48:56;99260.13;;;6.78;86.48
66176;BME280;52977;44.816;20.538;2023-12-20T10:51:24;99227.25;;;6.57;86.92
66176;BME280;52977;44.816;20.538;2023-12-20T10:53:53;99243.50;;;6.71;86.12
66176;BME280;52977;44.816;20.538;2023-12-20T10:56:20;99222.88;;;6.70;85.48
66176;BME280;52977;44.816;20.538;2023-12-20T10:58:55;99183.66;;;6.30;85.76
66176;BME280;52977;44.816;20.538;2023-12-20T11:01:23;99095.66;;;5.77;85.55
66176;BME280;52977;44.816;20.538;2023-12-20T11:03:52;99227.72;;;6.73;85.97
66176;BME280;52977;44.816;20.538;2023-12-20T11:06:49;99231.69;;;6.75;86.09
66176;BME280;52977;44.816;20.538;2023-12-20T11:09:31;99241.13;;;6.78;86.26
66176;BME280;52977;44.816;20.538;2023-12-20T11:14:46;99210.88;;;6.84;86.70
66176;BME280;52977;44.816;20.538;2023-12-20T11:17:13;99250.75;;;7.29;90.55
66176;BME280;52977;44.816;20.538;2023-12-20T11:22:29;99225.91;;;7.45;84.98
66176;BME280;52977;44.816;20.538;2023-12-20T11:25:10;99229.66;;;7.58;83.66
66176;BME280;52977;44.816;20.538;2023-12-20T11:27:41;99191.22;;;7.42;83.48
66176;BME280;52977;44.816;20.538;2023-12-20T11:30:09;99166.56;;;7.29;82.84
66176;BME280;52977;44.816;20.538;2023-12-20T11:32:36;99200.38;;;7.55;83.03
66176;BME280;52977;44.816;20.538;2023-12-20T11:37:36;99187.75;;;7.59;82.35
66176;BME280;52977;44.816;20.538;2023-12-20T11:40:05;99229.56;;;7.89;82.39
66176;BME280;52977;44.816;20.538;2023-12-20T11:42:42;99193.41;;;7.71;81.56
66176;BME280;52977;44.816;20.538;2023-12-20T11:45:13;99226.56;;;7.99;81.49
66176;BME280;52977;44.816;20.538;2023-12-20T11:47:46;99230.88;;;8.00;81.08
66176;BME280;52977;44.816;20.538;2023-12-20T11:50:12;99207.19;;;7.83;82.28
66176;BME280;52977;44.816;20.538;2023-12-20T11:52:37;99203.28;;;7.58;82.52
66176;BME280;52977;44.816;20.538;2023-12-20T11:55:04;99224.22;;;7.58;83.56
66176;BME280;52977;44.816;20.538;2023-12-20T11:57:30;99227.38;;;7.51;83.97
66176;BME280;52977;44.816;20.538;2023-12-20T11:59:57;99244.66;;;7.55;83.18
66176;BME280;52977;44.816;20.538;2023-12-20T12:02:23;99177.28;;;7.26;83.06
66176;BME280;52977;44.816;20.538;2023-12-20T12:04:50;99238.44;;;7.63;82.58
66176;BME280;52977;44.816;20.538;2023-12-20T12:07:35;99227.94;;;7.70;81.60
66176;BME280;52977;44.816;20.538;2023-12-20T12:10:02;99155.69;;;7.21;81.31
66176;BME280;52977;44.816;20.538;2023-12-20T12:12:29;99226.63;;;7.68;81.87
66176;BME280;52977;44.816;20.538;2023-12-20T12:14:56;99220.69;;;7.66;81.92
66176;BME280;52977;44.816;20.538;2023-12-20T12:17:23;99235.56;;;7.60;81.66
66176;BME280;52977;44.816;20.538;2023-12-20T12:19:48;99210.44;;;7.54;81.44
66176;BME280;52977;44.816;20.538;2023-12-20T12:22:15;99150.13;;;7.26;80.65
66176;BME280;52977;44.816;20.538;2023-12-20T12:24:43;99139.91;;;6.91;82.38
66176;BME280;52977;44.816;20.538;2023-12-20T12:27:10;99205.59;;;7.42;83.52
66176;BME280;52977;44.816;20.538;2023-12-20T12:29:37;99149.56;;;7.06;82.70
66176;BME280;52977;44.816;20.538;2023-12-20T12:32:07;99210.88;;;7.39;82.96
66176;BME280;52977;44.816;20.538;2023-12-20T12:34:34;99205.88;;;7.32;83.21
66176;BME280;52977;44.816;20.538;2023-12-20T12:37:00;99203.22;;;7.09;84.03
66176;BME280;52977;44.816;20.538;2023-12-20T12:39:26;99141.41;;;6.75;84.14
66176;BME280;52977;44.816;20.538;2023-12-20T12:41:55;99140.78;;;6.78;84.42
66176;BME280;52977;44.816;20.538;2023-12-20T12:44:21;99206.56;;;7.06;84.73
66176;BME280;52977;44.816;20.538;2023-12-20T12:46:49;99148.25;;;6.72;85.17
66176;BME280;52977;44.816;20.538;2023-12-20T12:49:20;99219.50;;;7.09;85.83
66176;BME280;52977;44.816;20.538;2023-12-20T12:51:47;99139.19;;;6.77;85.93
66176;BME280;52977;44.816;20.538;2023-12-20T12:54:12;99194.25;;;7.09;85.90
66176;BME280;52977;44.816;20.538;2023-12-20T12:56:39;99196.16;;;7.08;86.79
66176;BME280;52977;44.816;20.538;2023-12-20T12:59:05;99185.13;;;7.05;86.13
66176;BME280;52977;44.816;20.538;2023-12-20T13:01:31;99176.97;;;6.73;87.43
66176;BME280;52977;44.816;20.538;2023-12-20T13:03:57;99215.13;;;6.99;87.50
66176;BME280;52977;44.816;20.538;2023-12-20T13:06:23;99205.66;;;6.88;88.15